createdAt,value
2023-05-15T00:00:54.415Z,20.35
2023-05-15T00:03:21.788Z,14.07
2023-05-15T00:05:49.723Z,15.20
2023-05-15T00:08:16.538Z,13.80
2023-05-15T00:10:54.063Z,16.88
2023-05-15T00:13:27.269Z,16.40
2023-05-15T00:15:56.894Z,15.50
2023-05-15T00:18:24.403Z,17.60
2023-05-15T00:20:51.065Z,17.88
2023-05-15T00:23:20.084Z,18.23
2023-05-15T00:25:47.590Z,16.15
2023-05-15T00:28:20.189Z,16.75
2023-05-15T00:30:48.578Z,17.92
2023-05-15T00:33:17.619Z,21.55
2023-05-15T00:35:48.213Z,19.30
2023-05-15T00:38:14.914Z,18.58
2023-05-15T00:40:42.668Z,23.63
2023-05-15T00:43:12.599Z,21.67
2023-05-15T00:45:41.226Z,20.98
2023-05-15T00:48:13.758Z,22.95
2023-05-15T00:50:41.644Z,23.75
2023-05-15T00:53:19.210Z,24.98
2023-05-15T00:55:56.071Z,26.25
2023-05-15T00:58:23.904Z,27.63
2023-05-15T01:00:51.950Z,23.40
2023-05-15T01:03:27.175Z,23.63
2023-05-15T01:05:54.458Z,30.08
2023-05-15T01:08:34.462Z,29.08
2023-05-15T01:11:13.727Z,25.00
2023-05-15T01:13:44.911Z,24.20
2023-05-15T01:16:12.676Z,21.67
2023-05-15T01:18:41.944Z,22.15
2023-05-15T01:21:21.076Z,22.80
2023-05-15T01:24:17.716Z,25.25
2023-05-15T01:27:14.897Z,21.58
2023-05-15T01:30:08.390Z,23.58
2023-05-15T01:32:56.222Z,19.25
2023-05-15T01:35:31.181Z,21.35
2023-05-15T01:38:41.164Z,18.67
2023-05-15T01:41:23.972Z,20.70
2023-05-15T01:44:18.910Z,20.85
2023-05-15T01:46:52.236Z,20.48
2023-05-15T01:49:26.010Z,19.10
2023-05-15T01:52:02.113Z,19.80
2023-05-15T01:54:36.288Z,18.65
2023-05-15T01:57:04.891Z,17.23
2023-05-15T01:59:35.038Z,16.70
2023-05-15T02:02:06.661Z,16.42
2023-05-15T02:04:37.362Z,15.35
2023-05-15T02:07:04.986Z,17.02
2023-05-15T02:09:36.645Z,17.73
2023-05-15T02:12:04.385Z,15.63
2023-05-15T02:14:32.601Z,17.25
2023-05-15T02:17:02.208Z,19.00
2023-05-15T02:19:33.345Z,17.23
2023-05-15T02:22:00.145Z,16.50
2023-05-15T02:24:31.691Z,16.65
2023-05-15T02:27:11.724Z,13.32
2023-05-15T02:30:03.640Z,14.25
2023-05-15T02:32:49.620Z,16.38
2023-05-15T02:36:08.370Z,17.50
2023-05-15T02:39:02.125Z,19.40
2023-05-15T02:41:32.042Z,16.52
2023-05-15T02:44:01.614Z,16.13
2023-05-15T02:46:30.428Z,18.55
2023-05-15T02:48:57.890Z,17.27
2023-05-15T02:51:24.722Z,15.25
2023-05-15T02:53:52.430Z,16.55
2023-05-15T02:56:19.499Z,15.20
2023-05-15T02:58:46.988Z,16.50
2023-05-15T03:01:16.875Z,17.23
2023-05-15T03:03:44.368Z,15.85
2023-05-15T03:06:12.800Z,17.20
2023-05-15T03:08:41.029Z,19.58
2023-05-15T03:11:12.031Z,18.73
2023-05-15T03:13:39.064Z,18.80
2023-05-15T03:16:07.018Z,17.65
2023-05-15T03:18:34.220Z,17.65
2023-05-15T03:21:06.730Z,15.98
2023-05-15T03:23:35.219Z,17.70
2023-05-15T03:26:04.253Z,17.95
2023-05-15T03:28:32.488Z,14.70
2023-05-15T03:30:59.222Z,17.52
2023-05-15T03:33:30.702Z,14.98
2023-05-15T03:35:58.984Z,13.60
2023-05-15T03:38:25.782Z,14.80
2023-05-15T03:40:53.235Z,14.55
2023-05-15T03:43:20.461Z,10.43
2023-05-15T03:45:50.979Z,11.00
2023-05-15T03:48:18.433Z,12.43
2023-05-15T03:50:51.556Z,10.50
2023-05-15T03:53:18.249Z,15.10
2023-05-15T03:55:46.427Z,12.13
2023-05-15T03:58:13.669Z,13.63
2023-05-15T04:00:44.016Z,14.65
2023-05-15T04:03:12.141Z,12.73
2023-05-15T04:05:45.650Z,12.77
2023-05-15T04:08:14.896Z,15.15
2023-05-15T04:10:41.981Z,15.50
2023-05-15T04:13:09.086Z,16.25
2023-05-15T04:15:38.221Z,15.50
2023-05-15T04:18:07.004Z,18.33
2023-05-15T04:20:35.173Z,19.60
2023-05-15T04:23:04.516Z,17.60
2023-05-15T04:25:36.425Z,15.85
2023-05-15T04:28:03.918Z,20.85
2023-05-15T04:30:30.748Z,19.02
2023-05-15T04:32:57.970Z,19.77
2023-05-15T04:35:25.029Z,22.83
2023-05-15T04:37:52.400Z,19.50
2023-05-15T04:40:19.243Z,19.75
2023-05-15T04:42:46.382Z,18.17
2023-05-15T04:45:13.251Z,18.90
2023-05-15T04:47:40.359Z,19.80
2023-05-15T04:50:08.116Z,21.38
2023-05-15T04:52:36.020Z,23.48
2023-05-15T04:55:02.870Z,23.42
2023-05-15T04:57:30.817Z,17.30
2023-05-15T04:59:58.276Z,16.77
2023-05-15T05:02:25.474Z,17.70
2023-05-15T05:04:52.847Z,18.23
2023-05-15T05:07:19.896Z,19.23
2023-05-15T05:09:54.677Z,18.10
2023-05-15T05:12:22.068Z,18.25
2023-05-15T05:14:49.415Z,19.50
2023-05-15T05:17:16.564Z,21.80
2023-05-15T05:19:43.292Z,22.20
2023-05-15T05:22:12.037Z,22.23
2023-05-15T05:24:40.191Z,22.65
2023-05-15T05:27:07.992Z,20.83
2023-05-15T05:29:35.894Z,18.15
2023-05-15T05:32:03.378Z,23.42
2023-05-15T05:34:30.810Z,19.15
2023-05-15T05:36:57.506Z,16.80
2023-05-15T05:39:24.630Z,17.13
2023-05-15T05:41:51.412Z,16.85
2023-05-15T05:44:21.570Z,19.02
2023-05-15T05:46:48.733Z,16.98
2023-05-15T05:49:15.716Z,17.40
2023-05-15T05:51:46.730Z,17.42
2023-05-15T05:54:15.239Z,17.67
2023-05-15T05:56:43.656Z,17.13
2023-05-15T05:59:10.769Z,15.38
2023-05-15T06:01:41.055Z,15.60
2023-05-15T06:04:08.215Z,17.58
2023-05-15T06:06:36.352Z,13.10
2023-05-15T06:09:04.896Z,18.38
2023-05-15T06:11:34.657Z,12.70
2023-05-15T06:14:02.974Z,15.52
2023-05-15T06:16:29.852Z,19.88
2023-05-15T06:18:56.658Z,15.02
2023-05-15T06:21:23.398Z,15.18
2023-05-15T06:23:50.136Z,14.77
2023-05-15T06:26:16.993Z,14.45
2023-05-15T06:28:43.685Z,15.02
2023-05-15T06:31:10.667Z,17.10
2023-05-15T06:33:38.650Z,15.65
2023-05-15T06:36:05.823Z,15.35
2023-05-15T06:38:32.609Z,15.95
2023-05-15T06:40:59.297Z,13.13
2023-05-15T06:43:25.983Z,16.63
2023-05-15T06:45:52.721Z,11.55
2023-05-15T06:48:19.601Z,13.88
2023-05-15T06:50:50.044Z,16.60
2023-05-15T06:53:17.811Z,13.10
2023-05-15T06:55:47.402Z,12.03
2023-05-15T06:58:14.707Z,12.27
2023-05-15T07:00:43.028Z,14.50
2023-05-15T07:03:09.978Z,12.77
2023-05-15T07:05:37.116Z,11.63
2023-05-15T07:08:04.207Z,12.00
2023-05-15T07:10:31.367Z,12.80
2023-05-15T07:12:58.092Z,12.80
2023-05-15T07:15:24.821Z,11.80
2023-05-15T07:17:55.279Z,11.93
2023-05-15T07:20:22.361Z,12.00
2023-05-15T07:23:01.332Z,10.80
2023-05-15T07:25:31.088Z,10.67
2023-05-15T07:27:57.751Z,9.77
2023-05-15T07:30:29.076Z,10.13
2023-05-15T07:32:56.136Z,10.00
2023-05-15T07:35:23.023Z,11.20
2023-05-15T07:37:55.894Z,10.83
2023-05-15T07:40:22.688Z,11.43
2023-05-15T07:42:51.807Z,12.23
2023-05-15T07:45:18.960Z,10.83
2023-05-15T07:47:47.351Z,12.93
2023-05-15T07:50:21.015Z,9.27
2023-05-15T07:52:47.720Z,8.70
2023-05-15T07:55:14.939Z,9.40
2023-05-15T07:57:42.001Z,10.97
2023-05-15T08:00:13.674Z,9.50
2023-05-15T08:02:46.667Z,12.93
2023-05-15T08:05:16.624Z,8.73
2023-05-15T08:07:43.695Z,10.60
2023-05-15T08:10:10.842Z,9.80
2023-05-15T08:12:46.476Z,9.90
2023-05-15T08:15:13.870Z,11.70
2023-05-15T08:17:41.388Z,9.10
2023-05-15T08:20:08.693Z,9.43
2023-05-15T08:22:36.017Z,11.23
2023-05-15T08:25:06.722Z,15.07
2023-05-15T08:27:35.063Z,9.07
2023-05-15T08:30:02.775Z,10.33
2023-05-15T08:32:33.012Z,10.07
2023-05-15T08:35:01.958Z,11.57
2023-05-15T08:37:29.107Z,8.97
2023-05-15T08:40:08.479Z,10.37
2023-05-15T08:42:51.023Z,9.50
2023-05-15T08:45:18.574Z,17.63
2023-05-15T08:47:45.656Z,13.20
2023-05-15T08:50:15.256Z,10.17
2023-05-15T08:52:44.605Z,12.87
2023-05-15T08:55:12.168Z,12.60
2023-05-15T08:57:40.828Z,11.60
2023-05-15T09:00:09.341Z,9.23
2023-05-15T09:02:37.729Z,9.43
2023-05-15T09:05:08.427Z,11.30
2023-05-15T09:07:36.307Z,10.50
2023-05-15T09:10:06.252Z,15.10
2023-05-15T09:12:34.815Z,12.00
2023-05-15T09:15:22.847Z,12.83
2023-05-15T09:17:50.875Z,13.77
2023-05-15T09:20:31.461Z,12.70
2023-05-15T09:23:04.235Z,13.10
2023-05-15T09:25:57.327Z,14.50
2023-05-15T09:28:34.261Z,14.33
2023-05-15T09:31:05.595Z,12.93
2023-05-15T09:33:33.792Z,13.50
2023-05-15T09:36:08.416Z,11.13
2023-05-15T09:38:43.343Z,12.07
2023-05-15T09:41:10.189Z,11.60
2023-05-15T09:43:38.574Z,11.23
2023-05-15T09:46:34.633Z,13.13
2023-05-15T09:49:03.112Z,10.90
2023-05-15T09:51:32.288Z,12.20
2023-05-15T09:54:01.123Z,11.83
2023-05-15T09:56:30.792Z,10.50
2023-05-15T09:59:03.597Z,12.80
2023-05-15T10:01:31.971Z,10.07
2023-05-15T10:04:11.040Z,10.40
2023-05-15T10:06:46.526Z,9.00
2023-05-15T10:09:18.085Z,10.40
2023-05-15T10:11:51.664Z,8.40
2023-05-15T10:14:23.917Z,10.20
2023-05-15T10:16:53.104Z,9.70
2023-05-15T10:19:26.261Z,10.40
2023-05-15T10:21:58.753Z,9.43
2023-05-15T10:24:28.919Z,9.00
2023-05-15T10:27:00.189Z,9.33
2023-05-15T10:29:37.209Z,8.93
2023-05-15T10:32:06.716Z,8.43
2023-05-15T10:34:35.872Z,7.57
2023-05-15T10:37:04.582Z,5.73
2023-05-15T10:39:34.008Z,4.90
2023-05-15T10:42:03.099Z,5.47
2023-05-15T10:44:32.538Z,5.47
2023-05-15T10:47:09.567Z,5.47
2023-05-15T10:49:37.198Z,6.00
2023-05-15T10:52:06.486Z,6.33
2023-05-15T10:54:38.298Z,4.63
2023-05-15T10:57:09.082Z,5.47
2023-05-15T10:59:44.344Z,5.60
2023-05-15T11:02:25.875Z,10.70
2023-05-15T11:05:17.540Z,10.63
2023-05-15T11:07:47.002Z,7.30
2023-05-15T11:10:55.332Z,11.77
2023-05-15T11:13:27.599Z,10.23
2023-05-15T11:16:04.441Z,6.23
2023-05-15T11:21:33.008Z,6.27
2023-05-15T11:24:22.316Z,7.40
2023-05-15T11:27:00.162Z,6.83
2023-05-15T11:29:43.401Z,5.50
2023-05-15T11:32:51.661Z,6.07
2023-05-15T11:35:31.238Z,5.20
2023-05-15T11:38:02.274Z,6.40
2023-05-15T11:40:50.494Z,5.97
2023-05-15T11:43:36.622Z,5.77
2023-05-15T11:46:05.648Z,11.83
2023-05-15T11:48:45.543Z,6.50
2023-05-15T11:51:16.023Z,5.70
2023-05-15T11:53:46.849Z,5.60
2023-05-15T11:56:20.286Z,4.77
2023-05-15T11:59:04.406Z,5.27
2023-05-15T12:01:45.153Z,4.53
2023-05-15T12:04:17.290Z,4.77
2023-05-15T12:06:47.845Z,4.83
2023-05-15T12:09:19.068Z,3.57
2023-05-15T12:11:57.632Z,4.60
2023-05-15T12:14:47.410Z,4.50
2023-05-15T12:17:16.681Z,4.23
2023-05-15T12:19:50.327Z,4.40
2023-05-15T12:22:19.316Z,5.07
2023-05-15T12:24:46.623Z,4.07
2023-05-15T12:27:17.397Z,5.23
2023-05-15T12:29:44.528Z,3.47
2023-05-15T12:32:11.937Z,6.83
2023-05-15T12:34:38.902Z,4.40
2023-05-15T12:37:05.825Z,7.20
2023-05-15T12:39:32.896Z,3.40
2023-05-15T12:41:59.701Z,4.03
2023-05-15T12:44:27.312Z,2.93
2023-05-15T12:46:55.613Z,6.03
2023-05-15T12:49:23.126Z,3.67
2023-05-15T12:51:50.279Z,4.63
2023-05-15T12:54:19.144Z,3.20
2023-05-15T12:56:47.099Z,3.00
2023-05-15T12:59:14.038Z,3.70
2023-05-15T13:01:42.424Z,3.80
2023-05-15T13:04:10.715Z,12.17
2023-05-15T13:06:46.818Z,7.27
2023-05-15T13:09:21.570Z,3.50
2023-05-15T13:11:49.355Z,3.60
2023-05-15T13:14:19.519Z,3.00
2023-05-15T13:16:47.100Z,7.13
2023-05-15T13:19:15.094Z,4.17
2023-05-15T13:21:41.821Z,7.90
2023-05-15T13:24:11.088Z,5.97
2023-05-15T13:26:38.084Z,4.30
2023-05-15T13:29:05.309Z,5.03
2023-05-15T13:31:32.510Z,4.50
2023-05-15T13:33:59.277Z,4.10
2023-05-15T13:36:26.483Z,4.10
2023-05-15T13:38:53.184Z,4.50
2023-05-15T13:41:20.348Z,5.17
2023-05-15T13:43:49.272Z,5.33
2023-05-15T13:46:17.718Z,5.30
2023-05-15T13:48:44.853Z,4.83
2023-05-15T13:51:11.985Z,5.30
2023-05-15T13:53:38.812Z,4.87
2023-05-15T13:56:06.366Z,6.43
2023-05-15T13:58:33.284Z,7.17
2023-05-15T14:01:01.274Z,6.90
2023-05-15T14:03:31.188Z,5.90
2023-05-15T14:05:58.281Z,5.23
2023-05-15T14:08:25.150Z,5.20
2023-05-15T14:10:54.537Z,5.20
2023-05-15T14:13:21.869Z,4.90
2023-05-15T14:15:49.773Z,4.77
2023-05-15T14:18:16.614Z,4.87
2023-05-15T14:20:44.662Z,5.93
2023-05-15T14:23:11.434Z,5.83
2023-05-15T14:25:38.660Z,5.17
2023-05-15T14:28:05.439Z,4.90
2023-05-15T14:30:32.488Z,5.50
2023-05-15T14:32:59.676Z,4.83
2023-05-15T14:35:26.543Z,5.17
2023-05-15T14:37:53.259Z,5.77
2023-05-15T14:40:20.391Z,3.70
2023-05-15T14:42:47.700Z,5.20
2023-05-15T14:45:14.449Z,4.20
2023-05-15T14:47:41.696Z,5.07
2023-05-15T14:50:09.796Z,4.13
2023-05-15T14:52:36.954Z,7.80
2023-05-15T14:55:11.407Z,5.37
2023-05-15T14:57:39.249Z,4.00
2023-05-15T15:00:07.211Z,5.23
2023-05-15T15:02:34.410Z,3.73
2023-05-15T15:05:01.722Z,5.90
2023-05-15T15:07:30.554Z,5.03
2023-05-15T15:10:00.105Z,5.33
2023-05-15T15:12:28.145Z,4.90
2023-05-15T15:14:54.922Z,5.20
2023-05-15T15:17:22.102Z,6.10
2023-05-15T15:19:49.287Z,12.17
2023-05-15T15:22:16.112Z,6.63
2023-05-15T15:24:43.271Z,6.47
2023-05-15T15:27:12.114Z,7.47
2023-05-15T15:29:38.909Z,8.57
2023-05-15T15:32:05.907Z,7.70
2023-05-15T15:34:34.070Z,7.30
2023-05-15T15:37:00.775Z,8.63
2023-05-15T15:39:27.816Z,7.53
2023-05-15T15:41:57.648Z,6.00
2023-05-15T15:44:24.889Z,6.90
2023-05-15T15:46:51.604Z,8.47
2023-05-15T15:49:18.575Z,7.90
2023-05-15T15:51:45.312Z,12.97
2023-05-15T15:54:17.604Z,10.90
2023-05-15T15:56:44.338Z,8.80
2023-05-15T15:59:11.606Z,10.90
2023-05-15T16:01:38.390Z,8.77
2023-05-15T16:04:07.487Z,9.60
2023-05-15T16:06:34.424Z,9.13
2023-05-15T16:09:01.538Z,10.97
2023-05-15T16:11:32.181Z,12.40
2023-05-15T16:13:58.970Z,8.50
2023-05-15T16:16:26.201Z,9.67
2023-05-15T16:18:53.131Z,11.80
2023-05-15T16:21:21.552Z,9.40
2023-05-15T16:23:48.837Z,8.90
2023-05-15T16:26:15.572Z,9.10
2023-05-15T16:28:42.621Z,9.00
2023-05-15T16:31:09.707Z,11.27
2023-05-15T16:33:37.039Z,9.87
2023-05-15T16:36:05.569Z,9.23
2023-05-15T16:38:32.352Z,9.67
2023-05-15T16:40:59.433Z,10.37
2023-05-15T16:43:26.340Z,10.60
2023-05-15T16:45:53.215Z,11.10
2023-05-15T16:48:19.980Z,10.43
2023-05-15T16:50:47.769Z,11.27
2023-05-15T16:53:16.087Z,15.20
2023-05-15T16:55:43.018Z,10.77
2023-05-15T16:58:10.253Z,10.33
2023-05-15T17:00:37.135Z,10.47
2023-05-15T17:03:06.407Z,13.30
2023-05-15T17:05:34.140Z,14.93
2023-05-15T17:08:01.525Z,11.27
2023-05-15T17:10:28.392Z,10.20
2023-05-15T17:12:56.242Z,11.00
2023-05-15T17:15:23.919Z,11.53
2023-05-15T17:17:50.802Z,11.60
2023-05-15T17:20:18.132Z,11.53
2023-05-15T17:22:45.051Z,12.60
2023-05-15T17:25:11.780Z,15.70
2023-05-15T17:27:41.293Z,10.27
2023-05-15T17:30:10.103Z,11.43
2023-05-15T17:32:38.017Z,10.13
2023-05-15T17:35:05.654Z,14.30
2023-05-15T17:37:32.459Z,10.60
2023-05-15T17:40:00.063Z,10.10
2023-05-15T17:42:28.374Z,12.73
2023-05-15T17:44:56.454Z,13.00
2023-05-15T17:47:23.564Z,12.00
2023-05-15T17:49:50.370Z,12.30
2023-05-15T17:52:17.150Z,12.13
2023-05-15T17:54:45.079Z,12.77
2023-05-15T17:57:13.020Z,13.80
2023-05-15T17:59:40.049Z,15.20
2023-05-15T18:02:07.473Z,15.03
2023-05-15T18:04:34.717Z,16.57
2023-05-15T18:07:01.444Z,15.93
2023-05-15T18:09:28.284Z,16.20
2023-05-15T18:11:55.079Z,17.27
2023-05-15T18:14:21.848Z,16.03
2023-05-15T18:16:49.011Z,16.03
2023-05-15T18:19:16.134Z,15.47
2023-05-15T18:21:42.943Z,16.00
2023-05-15T18:24:09.867Z,16.47
2023-05-15T18:26:36.882Z,16.30
2023-05-15T18:29:04.202Z,16.90
2023-05-15T18:31:31.190Z,16.67
2023-05-15T18:33:58.005Z,15.97
2023-05-15T18:36:24.995Z,15.73
2023-05-15T18:38:51.754Z,14.87
2023-05-15T18:41:18.513Z,17.10
2023-05-15T18:43:45.402Z,16.92
2023-05-15T18:46:12.166Z,17.17
2023-05-15T18:48:39.314Z,18.10
2023-05-15T18:51:06.102Z,15.57
2023-05-15T18:53:35.293Z,17.77
2023-05-15T18:56:02.009Z,19.70
2023-05-15T18:58:28.741Z,18.65
2023-05-15T19:00:56.635Z,18.50
2023-05-15T19:03:23.855Z,17.58
2023-05-15T19:05:54.451Z,17.23
2023-05-15T19:08:21.122Z,21.10
2023-05-15T19:10:48.696Z,19.58
2023-05-15T19:13:15.506Z,16.92
2023-05-15T19:15:51.216Z,20.75
2023-05-15T19:18:18.331Z,18.50
2023-05-15T19:20:50.939Z,17.85
2023-05-15T19:23:18.715Z,18.38
2023-05-15T19:25:45.890Z,18.73
2023-05-15T19:28:14.302Z,27.10
2023-05-15T19:30:41.599Z,19.02
2023-05-15T19:33:08.944Z,21.90
2023-05-15T19:35:37.526Z,19.65
2023-05-15T19:38:04.678Z,18.42
2023-05-15T19:40:32.009Z,19.00
2023-05-15T19:42:58.779Z,17.88
2023-05-15T19:45:26.046Z,17.63
2023-05-15T19:47:53.129Z,16.52
2023-05-15T19:50:19.978Z,18.63
2023-05-15T19:52:49.069Z,18.20
2023-05-15T19:55:17.425Z,20.60
2023-05-15T19:57:45.066Z,19.80
2023-05-15T20:00:15.671Z,20.20
2023-05-15T20:02:42.997Z,19.83
2023-05-15T20:05:10.010Z,20.80
2023-05-15T20:07:38.805Z,20.77
2023-05-15T20:10:11.701Z,19.63
2023-05-15T20:12:39.940Z,23.73
2023-05-15T20:15:07.496Z,20.88
2023-05-15T20:17:34.274Z,20.77
2023-05-15T20:20:02.688Z,20.67
2023-05-15T20:22:29.955Z,25.17
2023-05-15T20:24:56.689Z,22.50
2023-05-15T20:27:24.352Z,24.13
2023-05-15T20:29:51.475Z,26.92
2023-05-15T20:32:25.647Z,23.70
2023-05-15T20:34:53.879Z,24.33
2023-05-15T20:37:24.332Z,25.38
2023-05-15T20:39:51.896Z,23.77
2023-05-15T20:42:18.651Z,22.65
2023-05-15T20:44:45.946Z,23.25
2023-05-15T20:47:12.753Z,24.30
2023-05-15T20:49:39.927Z,23.73
2023-05-15T20:52:07.213Z,23.92
2023-05-15T20:54:34.248Z,23.30
2023-05-15T20:57:01.676Z,21.20
2023-05-15T20:59:28.505Z,22.30
2023-05-15T21:01:55.337Z,21.85
2023-05-15T21:04:24.014Z,25.77
2023-05-15T21:06:51.993Z,21.23
2023-05-15T21:09:19.349Z,23.98
2023-05-15T21:11:47.277Z,18.95
2023-05-15T21:14:14.905Z,19.23
2023-05-15T21:16:44.350Z,20.13
2023-05-15T21:19:14.945Z,19.50
2023-05-15T21:21:42.081Z,20.52
2023-05-15T21:24:08.908Z,17.60
2023-05-15T21:26:36.146Z,24.13
2023-05-15T21:29:02.882Z,17.30
2023-05-15T21:31:33.218Z,18.75
2023-05-15T21:34:00.448Z,21.83
2023-05-15T21:36:27.639Z,21.05
2023-05-15T21:38:55.955Z,20.63
2023-05-15T21:41:23.035Z,18.20
2023-05-15T21:43:49.774Z,17.90
2023-05-15T21:46:19.455Z,24.75
2023-05-15T21:48:51.927Z,19.67
2023-05-15T21:51:18.666Z,19.58
2023-05-15T21:53:45.706Z,19.42
2023-05-15T21:56:13.020Z,20.17
2023-05-15T21:58:41.864Z,19.08
2023-05-15T22:01:08.916Z,20.13
2023-05-15T22:03:35.830Z,23.02
2023-05-15T22:06:02.660Z,20.15
2023-05-15T22:08:29.449Z,18.80
2023-05-15T22:10:58.723Z,18.45
2023-05-15T22:13:43.517Z,20.15
2023-05-15T22:16:19.980Z,21.75
2023-05-15T22:18:48.005Z,21.27
2023-05-15T22:21:15.459Z,17.90
2023-05-15T22:23:44.855Z,21.85
2023-05-15T22:26:20.611Z,18.50
2023-05-15T22:28:49.136Z,18.95
2023-05-15T22:31:15.873Z,20.30
2023-05-15T22:33:43.006Z,22.95
2023-05-15T22:36:09.922Z,20.45
2023-05-15T22:38:36.698Z,21.58
2023-05-15T22:41:03.776Z,20.83
2023-05-15T22:43:31.445Z,20.70
2023-05-15T22:45:58.637Z,20.10
2023-05-15T22:48:32.971Z,21.15
2023-05-15T22:51:03.224Z,20.50
2023-05-15T22:53:33.784Z,21.80
2023-05-15T22:56:03.019Z,20.83
2023-05-15T22:58:30.204Z,22.20
2023-05-15T23:00:57.006Z,18.40
2023-05-15T23:03:23.937Z,19.05
2023-05-15T23:05:56.086Z,19.90
2023-05-15T23:08:22.922Z,20.52
2023-05-15T23:10:50.126Z,25.08
2023-05-15T23:13:16.843Z,23.92
2023-05-15T23:15:44.744Z,19.92
2023-05-15T23:18:12.171Z,20.23
2023-05-15T23:20:40.596Z,21.98
2023-05-15T23:23:07.357Z,22.52
2023-05-15T23:25:34.582Z,20.85
2023-05-15T23:28:01.803Z,19.27
2023-05-15T23:30:28.705Z,21.60
2023-05-15T23:32:59.745Z,20.85
2023-05-15T23:35:26.574Z,21.52
2023-05-15T23:37:53.738Z,22.85
2023-05-15T23:40:20.896Z,23.25
2023-05-15T23:42:47.706Z,21.70
2023-05-15T23:45:15.444Z,20.08
2023-05-15T23:47:42.497Z,22.38
2023-05-15T23:50:09.822Z,22.65
2023-05-15T23:52:36.625Z,22.48
2023-05-15T23:55:04.099Z,23.73
2023-05-15T23:57:31.405Z,23.73
